createdAt,value
2023-04-06T00:01:22.250Z,99264.03
2023-04-06T00:04:34.327Z,99265.73
2023-04-06T00:13:46.652Z,99272.91
2023-04-06T00:16:59.321Z,99268.96
2023-04-06T00:20:17.422Z,99270.83
2023-04-06T00:23:29.491Z,99261.17
2023-04-06T00:26:43.558Z,99256.99
2023-04-06T00:29:55.656Z,99257.51
2023-04-06T00:33:07.882Z,99260.27
2023-04-06T00:36:20.016Z,99255.31
2023-04-06T00:39:32.900Z,99262.36
2023-04-06T00:42:45.199Z,99252.55
2023-04-06T00:49:16.885Z,99240.42
2023-04-06T00:52:29.919Z,99247.33
2023-04-06T00:55:42.425Z,99244.72
2023-04-06T00:58:55.991Z,99245.65
2023-04-06T01:02:09.191Z,99244.87
2023-04-06T01:05:27.115Z,99244.94
2023-04-06T01:08:41.386Z,99243.42
2023-04-06T01:11:58.101Z,99241.73
2023-04-06T01:15:16.554Z,99220.59
2023-04-06T01:18:34.846Z,99242.94
2023-04-06T01:24:52.202Z,99235.81
2023-04-06T01:28:10.671Z,99238.61
2023-04-06T01:35:09.120Z,99233.39
2023-04-06T01:38:23.379Z,99223.09
2023-04-06T01:41:36.269Z,99227.45
2023-04-06T01:44:49.386Z,99220.67
2023-04-06T01:48:02.773Z,99212.39
2023-04-06T01:51:15.012Z,99220.67
2023-04-06T01:54:37.160Z,99219.89
2023-04-06T02:09:54.225Z,99220.58
2023-04-06T02:22:08.317Z,99215.69
2023-04-06T02:25:21.436Z,99212.23
2023-04-06T02:28:34.399Z,99210.87
2023-04-06T02:31:47.253Z,99209.47
2023-04-06T02:37:59.464Z,99218.22
2023-04-06T02:50:12.939Z,99217.14
2023-04-06T02:56:27.667Z,99219.74
2023-04-06T02:59:39.633Z,99221.56
2023-04-06T03:02:53.970Z,99221.32
2023-04-06T03:09:07.149Z,99229.25
2023-04-06T03:18:19.922Z,99219.61
2023-04-06T03:33:38.663Z,99223.38
2023-04-06T03:36:59.835Z,99234.70
2023-04-06T03:40:05.128Z,99232.78
2023-04-06T03:43:17.579Z,99232.64
2023-04-06T03:49:29.707Z,99227.42
2023-04-06T03:52:44.205Z,99229.14
2023-04-06T03:55:56.460Z,99227.56
2023-04-06T03:59:08.630Z,99220.64
2023-04-06T04:02:21.112Z,99226.47
2023-04-06T04:05:33.500Z,99228.84
2023-04-06T04:08:46.431Z,99225.98
2023-04-06T04:11:58.573Z,99228.46
2023-04-06T04:15:13.499Z,99235.18
2023-04-06T04:18:25.464Z,99229.69
2023-04-06T04:21:39.038Z,99225.19
2023-04-06T04:24:52.780Z,99219.83
2023-04-06T04:28:05.100Z,99225.73
2023-04-06T04:31:19.466Z,99225.52
2023-04-06T04:34:34.180Z,99223.77
2023-04-06T04:37:47.692Z,99224.63
2023-04-06T04:41:00.284Z,99220.19
2023-04-06T04:44:12.997Z,99222.55
2023-04-06T04:47:26.187Z,99221.44
2023-04-06T04:50:38.530Z,99218.50
2023-04-06T04:53:51.330Z,99211.27
2023-04-06T04:57:05.272Z,99218.77
2023-04-06T05:00:24.169Z,99223.62
2023-04-06T05:03:39.878Z,99218.18
2023-04-06T05:06:54.007Z,99215.27
2023-04-06T05:10:06.431Z,99211.45
2023-04-06T05:13:20.983Z,99211.89
2023-04-06T05:16:33.912Z,99210.06
2023-04-06T05:19:46.863Z,99212.48
2023-04-06T05:23:00.572Z,99208.55
2023-04-06T05:26:13.814Z,99214.13
2023-04-06T05:29:27.551Z,99209.67
2023-04-06T05:32:40.508Z,99216.34
2023-04-06T05:35:52.603Z,99202.26
2023-04-06T05:39:05.106Z,99200.42
2023-04-06T05:42:21.894Z,99199.10
2023-04-06T05:45:39.020Z,99204.61
2023-04-06T05:48:51.584Z,99207.61
2023-04-06T05:52:05.372Z,99205.31
2023-04-06T05:55:19.037Z,99197.11
2023-04-06T05:58:34.191Z,99204.55
2023-04-06T06:01:46.489Z,99207.20
2023-04-06T06:04:59.559Z,99207.16
2023-04-06T06:08:12.353Z,99205.61
2023-04-06T06:11:24.689Z,99205.16
2023-04-06T06:14:37.887Z,99199.73
2023-04-06T06:17:50.657Z,99203.54
2023-04-06T06:21:03.124Z,99199.21
2023-04-06T06:24:16.555Z,99200.19
2023-04-06T06:27:28.872Z,99198.80
2023-04-06T06:30:41.483Z,99199.23
2023-04-06T06:33:54.298Z,99198.16
2023-04-06T06:37:06.720Z,99193.95
2023-04-06T06:40:21.274Z,99197.17
2023-04-06T06:43:33.901Z,99196.66
2023-04-06T06:46:47.945Z,99198.72
2023-04-06T06:50:00.384Z,99189.80
2023-04-06T06:53:12.967Z,99191.04
2023-04-06T06:56:25.244Z,99189.75
2023-04-06T06:59:39.249Z,99186.50
2023-04-06T07:02:52.014Z,99195.80
2023-04-06T07:06:04.748Z,99192.41
2023-04-06T07:09:17.135Z,99193.02
2023-04-06T07:12:29.348Z,99190.88
2023-04-06T07:15:41.709Z,99193.95
2023-04-06T07:18:54.461Z,99194.98
2023-04-06T07:25:07.281Z,99197.50
2023-04-06T07:28:20.181Z,99194.58
2023-04-06T07:31:32.898Z,99196.48
2023-04-06T07:34:46.318Z,99192.02
2023-04-06T07:38:00.280Z,99193.47
2023-04-06T07:41:13.536Z,99196.12
2023-04-06T07:44:26.454Z,99185.50
2023-04-06T07:47:39.435Z,99195.49
2023-04-06T07:50:51.775Z,99186.06
2023-04-06T07:54:04.406Z,99181.09
2023-04-06T07:57:16.920Z,99188.34
2023-04-06T08:00:31.539Z,99190.20
2023-04-06T08:03:44.946Z,99183.48
2023-04-06T08:06:59.040Z,99173.05
2023-04-06T08:10:15.026Z,99167.20
2023-04-06T08:35:08.081Z,99151.58
2023-04-06T08:38:20.320Z,99108.91
2023-04-06T08:47:33.248Z,99135.52
2023-04-06T08:53:46.337Z,99127.23
2023-04-06T08:57:00.122Z,99124.59
2023-04-06T09:00:18.192Z,99125.52
2023-04-06T09:03:31.645Z,99128.38
2023-04-06T09:50:35.511Z,99100.92
2023-04-06T10:18:38.250Z,99096.84
2023-04-06T10:37:20.131Z,99102.45
2023-04-06T10:40:34.125Z,99104.42
2023-04-06T10:43:48.783Z,99103.30
2023-04-06T10:47:05.917Z,99097.39
2023-04-06T10:56:22.283Z,99082.92
2023-04-06T11:02:34.874Z,99079.14
2023-04-06T11:14:47.465Z,99078.11
2023-04-06T11:17:59.800Z,99078.11
2023-04-06T11:27:13.516Z,99073.94
2023-04-06T11:33:31.616Z,99062.03
2023-04-06T11:39:55.323Z,99076.56
2023-04-06T11:43:08.262Z,99070.13
2023-04-06T11:46:25.291Z,99070.38
2023-04-06T11:49:36.284Z,99069.29
2023-04-06T11:55:48.506Z,99065.77
2023-04-06T11:59:02.157Z,99065.95
2023-04-06T12:02:14.452Z,99054.95
2023-04-06T12:05:26.971Z,99056.70
2023-04-06T12:08:39.278Z,99055.94
2023-04-06T12:11:51.813Z,99046.73
2023-04-06T12:15:05.260Z,99052.80
2023-04-06T12:18:17.456Z,99050.19
2023-04-06T12:21:30.786Z,99055.43
2023-04-06T12:27:42.902Z,99057.80
2023-04-06T12:30:55.844Z,99048.34
2023-04-06T12:34:08.891Z,99045.81
2023-04-06T12:37:21.726Z,99039.90
2023-04-06T12:44:01.952Z,99030.77
2023-04-06T12:47:14.266Z,99031.09
2023-04-06T12:56:27.900Z,99021.75
2023-04-06T13:02:40.786Z,99027.39
2023-04-06T13:05:54.735Z,99016.76
2023-04-06T13:09:09.140Z,99006.62
2023-04-06T13:12:21.452Z,98997.81
2023-04-06T13:15:35.754Z,99000.62
2023-04-06T13:18:49.206Z,98995.14
2023-04-06T13:22:01.674Z,98987.19
2023-04-06T13:31:14.622Z,98986.67
2023-04-06T13:34:27.665Z,98995.13
2023-04-06T13:37:42.312Z,98995.28
2023-04-06T13:40:55.146Z,98990.38
2023-04-06T13:44:08.887Z,98989.72
2023-04-06T13:47:23.704Z,98986.95
2023-04-06T13:50:37.966Z,98982.72
2023-04-06T13:53:52.413Z,98986.67
2023-04-06T13:57:05.504Z,98990.81
2023-04-06T14:00:21.461Z,98984.33
2023-04-06T14:03:36.431Z,98993.52
2023-04-06T14:06:49.802Z,98988.47
2023-04-06T14:10:02.396Z,98987.52
2023-04-06T14:16:15.421Z,98995.38
2023-04-06T14:19:27.770Z,98998.42
2023-04-06T14:22:40.018Z,98994.09
2023-04-06T14:25:52.251Z,98992.42
2023-04-06T14:29:05.405Z,98994.95
2023-04-06T14:32:19.406Z,98998.24
2023-04-06T14:35:33.605Z,98995.47
2023-04-06T14:38:47.670Z,98997.14
2023-04-06T14:41:59.778Z,99004.85
2023-04-06T14:45:13.896Z,99003.91
2023-04-06T14:48:25.963Z,99002.05
2023-04-06T14:51:38.919Z,98994.60
2023-04-06T14:54:50.997Z,98995.45
2023-04-06T14:58:03.103Z,98999.18
2023-04-06T15:01:15.119Z,99000.03
2023-04-06T15:04:27.277Z,99002.89
2023-04-06T15:07:39.401Z,98995.36
2023-04-06T15:10:51.697Z,98999.41
2023-04-06T15:14:04.375Z,98998.17
2023-04-06T15:17:16.354Z,98996.65
2023-04-06T15:20:28.537Z,98995.47
2023-04-06T15:23:40.677Z,98994.61
2023-04-06T15:26:52.719Z,98989.28
2023-04-06T15:30:04.854Z,98992.66
2023-04-06T15:33:17.237Z,98994.95
2023-04-06T15:36:34.129Z,98989.20
2023-04-06T15:39:46.415Z,98993.52
2023-04-06T15:42:58.526Z,99002.38
2023-04-06T15:46:10.872Z,98977.48
2023-04-06T15:49:23.013Z,99003.05
2023-04-06T15:52:35.075Z,98999.09
2023-04-06T15:55:47.093Z,98998.42
2023-04-06T15:58:59.519Z,98998.66
2023-04-06T16:02:12.101Z,99008.45
2023-04-06T16:05:24.415Z,99003.70
2023-04-06T16:08:36.856Z,98999.33
2023-04-06T16:11:48.970Z,99010.97
2023-04-06T16:15:01.184Z,99001.03
2023-04-06T16:18:13.544Z,98998.56
2023-04-06T16:21:26.945Z,98998.47
2023-04-06T16:24:39.289Z,98998.47
2023-04-06T16:27:52.120Z,98999.65
2023-04-06T16:31:04.057Z,98996.45
2023-04-06T16:34:16.238Z,99005.20
2023-04-06T16:37:29.983Z,98999.48
2023-04-06T16:40:42.211Z,99006.48
2023-04-06T16:43:55.200Z,99001.48
2023-04-06T16:47:07.854Z,98998.72
2023-04-06T16:50:20.626Z,99000.48
2023-04-06T16:53:32.624Z,98994.80
2023-04-06T16:56:44.672Z,98989.71
2023-04-06T16:59:56.783Z,98986.42
2023-04-06T17:03:09.232Z,98993.36
2023-04-06T17:06:22.175Z,98977.04
2023-04-06T17:09:34.781Z,98990.13
2023-04-06T17:12:46.952Z,98987.68
2023-04-06T17:15:59.110Z,98991.97
2023-04-06T17:19:11.245Z,98989.63
2023-04-06T17:22:24.647Z,98987.91
2023-04-06T17:25:36.927Z,98987.91
2023-04-06T17:28:49.595Z,98990.44
2023-04-06T17:32:01.977Z,98989.63
2023-04-06T17:35:16.214Z,98985.52
2023-04-06T17:38:28.422Z,98983.00
2023-04-06T17:41:40.618Z,98995.17
2023-04-06T17:44:53.310Z,98994.14
2023-04-06T17:48:05.978Z,98997.70
2023-04-06T17:51:21.614Z,98997.92
2023-04-06T17:54:33.869Z,98991.70
2023-04-06T17:57:47.117Z,98991.78
2023-04-06T18:00:59.932Z,98995.17
2023-04-06T18:04:12.214Z,99002.08
2023-04-06T18:07:24.796Z,98999.31
2023-04-06T18:10:37.156Z,99001.75
2023-04-06T18:13:49.981Z,99005.37
2023-04-06T18:17:03.457Z,98997.84
2023-04-06T18:20:17.684Z,98996.93
2023-04-06T18:23:29.948Z,98996.70
2023-04-06T18:26:42.695Z,99001.93
2023-04-06T18:29:55.155Z,98996.70
2023-04-06T18:33:07.952Z,98987.55
2023-04-06T18:36:21.681Z,98985.30
2023-04-06T18:39:46.924Z,98991.38
2023-04-06T18:42:59.835Z,98986.30
2023-04-06T18:49:54.906Z,98991.47
2023-04-06T18:56:51.436Z,98977.45
2023-04-06T19:00:04.118Z,98974.83
2023-04-06T19:03:16.999Z,98978.63
2023-04-06T19:06:31.362Z,98978.53
2023-04-06T19:09:43.453Z,98976.86
2023-04-06T19:13:01.695Z,98975.15
2023-04-06T19:19:16.739Z,98965.95
2023-04-06T19:22:29.413Z,98963.33
2023-04-06T19:56:52.264Z,98944.72
2023-04-06T20:03:05.367Z,98940.06
2023-04-06T20:06:17.934Z,98958.56
2023-04-06T20:09:30.736Z,98956.03
2023-04-06T20:15:43.140Z,98951.80
2023-04-06T20:37:25.713Z,98943.95
2023-04-06T20:43:52.085Z,98945.80
2023-04-06T20:47:08.555Z,98927.59
2023-04-06T20:50:21.638Z,98931.97
2023-04-06T20:53:33.984Z,98925.06
2023-04-06T20:56:46.455Z,98924.97
2023-04-06T20:59:58.884Z,98927.45
2023-04-06T21:03:11.282Z,98929.34
2023-04-06T21:06:23.288Z,98928.44
2023-04-06T21:09:35.298Z,98924.89
2023-04-06T21:12:47.348Z,98928.27
2023-04-06T21:16:00.344Z,98931.50
2023-04-06T21:19:12.665Z,98925.66
2023-04-06T21:22:24.693Z,98923.13
2023-04-06T21:25:36.723Z,98923.21
2023-04-06T21:28:48.872Z,98911.22
2023-04-06T21:32:00.937Z,98909.38
2023-04-06T21:35:15.593Z,98911.05
2023-04-06T21:38:27.603Z,98904.29
2023-04-06T21:41:40.888Z,98904.29
2023-04-06T21:44:52.845Z,98906.84
2023-04-06T21:48:05.073Z,98906.91
2023-04-06T21:51:23.895Z,98900.91
2023-04-06T21:54:39.785Z,98904.15
2023-04-06T21:57:51.863Z,98897.22
2023-04-06T22:01:03.893Z,98891.98
2023-04-06T22:04:16.132Z,98890.22
2023-04-06T22:07:28.593Z,98885.98
2023-04-06T22:19:42.292Z,98869.40
2023-04-06T22:36:34.087Z,98862.46
2023-04-06T22:39:46.472Z,98863.41
2023-04-06T22:42:58.618Z,98856.15
2023-04-06T22:55:12.196Z,98837.85
2023-04-06T23:20:05.511Z,98838.61
2023-04-06T23:23:17.809Z,98835.17
2023-04-06T23:26:30.114Z,98830.00
2023-04-06T23:29:42.284Z,98832.47
2023-04-06T23:35:55.364Z,98814.17
2023-04-06T23:39:07.756Z,98824.63
2023-04-06T23:42:20.095Z,98819.31
2023-04-06T23:45:33.284Z,98806.33
2023-04-06T23:48:45.789Z,98809.80
2023-04-06T23:51:58.414Z,98808.19
2023-04-06T23:55:11.926Z,98809.70
2023-04-06T23:58:24.527Z,98802.02
